sensor_id;sensor_type;location;lat;lon;timestamp;temperature;humidity
22682;DHT22;11508;50.856;4.380;2022-09-23T00:00:33;14.60;1.00
22682;DHT22;11508;50.856;4.380;2022-09-23T00:02:59;14.60;1.00
22682;DHT22;11508;50.856;4.380;2022-09-23T00:05:26;14.60;1.00
22682;DHT22;11508;50.856;4.380;2022-09-23T00:07:52;14.60;1.00
22682;DHT22;11508;50.856;4.380;2022-09-23T00:10:18;14.60;1.00
22682;DHT22;11508;50.856;4.380;2022-09-23T00:12:44;14.70;1.00
22682;DHT22;11508;50.856;4.380;2022-09-23T00:15:10;14.70;1.00
22682;DHT22;11508;50.856;4.380;2022-09-23T00:17:37;14.70;1.00
22682;DHT22;11508;50.856;4.380;2022-09-23T00:20:03;14.50;1.00
22682;DHT22;11508;50.856;4.380;2022-09-23T00:22:29;14.40;1.00
22682;DHT22;11508;50.856;4.380;2022-09-23T00:24:55;14.30;1.00
22682;DHT22;11508;50.856;4.380;2022-09-23T00:27:20;14.20;1.00
22682;DHT22;11508;50.856;4.380;2022-09-23T00:29:49;14.20;1.00
22682;DHT22;11508;50.856;4.380;2022-09-23T00:32:15;14.20;1.00
22682;DHT22;11508;50.856;4.380;2022-09-23T00:34:43;14.30;1.00
22682;DHT22;11508;50.856;4.380;2022-09-23T00:37:09;14.40;1.00
22682;DHT22;11508;50.856;4.380;2022-09-23T00:39:34;14.50;1.00
22682;DHT22;11508;50.856;4.380;2022-09-23T00:42:00;14.60;1.00
22682;DHT22;11508;50.856;4.380;2022-09-23T00:44:53;14.40;1.00
22682;DHT22;11508;50.856;4.380;2022-09-23T00:52:46;14.20;1.00
22682;DHT22;11508;50.856;4.380;2022-09-23T00:55:21;14.10;1.00
22682;DHT22;11508;50.856;4.380;2022-09-23T00:57:51;14.10;1.00
22682;DHT22;11508;50.856;4.380;2022-09-23T01:00:19;14.10;1.00
22682;DHT22;11508;50.856;4.380;2022-09-23T01:02:45;14.20;1.00
22682;DHT22;11508;50.856;4.380;2022-09-23T01:05:11;14.20;1.00
22682;DHT22;11508;50.856;4.380;2022-09-23T01:07:38;14.10;1.00
22682;DHT22;11508;50.856;4.380;2022-09-23T01:10:04;14.20;1.00
22682;DHT22;11508;50.856;4.380;2022-09-23T01:18:04;14.30;1.00
22682;DHT22;11508;50.856;4.380;2022-09-23T01:26:29;14.40;1.00
22682;DHT22;11508;50.856;4.380;2022-09-23T01:34:32;14.70;1.00
22682;DHT22;11508;50.856;4.380;2022-09-23T01:39:37;14.80;1.00
22682;DHT22;11508;50.856;4.380;2022-09-23T01:42:16;14.70;1.00
22682;DHT22;11508;50.856;4.380;2022-09-23T01:44:57;14.50;1.00
22682;DHT22;11508;50.856;4.380;2022-09-23T01:47:35;14.30;1.00
22682;DHT22;11508;50.856;4.380;2022-09-23T01:50:15;14.40;1.00
22682;DHT22;11508;50.856;4.380;2022-09-23T01:53:05;14.40;1.00
22682;DHT22;11508;50.856;4.380;2022-09-23T01:55:34;14.50;1.00
22682;DHT22;11508;50.856;4.380;2022-09-23T01:58:12;14.40;1.00
22682;DHT22;11508;50.856;4.380;2022-09-23T02:01:02;14.30;1.00
22682;DHT22;11508;50.856;4.380;2022-09-23T02:03:30;14.10;1.00
22682;DHT22;11508;50.856;4.380;2022-09-23T02:06:06;13.90;1.00
22682;DHT22;11508;50.856;4.380;2022-09-23T02:09:03;13.80;1.00
22682;DHT22;11508;50.856;4.380;2022-09-23T02:11:28;13.90;1.00
22682;DHT22;11508;50.856;4.380;2022-09-23T02:14:08;14.20;1.00
22682;DHT22;11508;50.856;4.380;2022-09-23T02:16:44;14.20;1.00
22682;DHT22;11508;50.856;4.380;2022-09-23T02:19:19;14.30;1.00
22682;DHT22;11508;50.856;4.380;2022-09-23T02:21:51;14.40;1.00
22682;DHT22;11508;50.856;4.380;2022-09-23T02:24:27;14.40;1.00
22682;DHT22;11508;50.856;4.380;2022-09-23T02:30:10;14.50;1.00
22682;DHT22;11508;50.856;4.380;2022-09-23T02:38:19;14.50;1.00
22682;DHT22;11508;50.856;4.380;2022-09-23T02:43:46;14.50;1.00
22682;DHT22;11508;50.856;4.380;2022-09-23T02:46:12;14.50;1.00
22682;DHT22;11508;50.856;4.380;2022-09-23T02:48:58;14.30;1.00
22682;DHT22;11508;50.856;4.380;2022-09-23T02:51:26;14.20;1.00
22682;DHT22;11508;50.856;4.380;2022-09-23T02:53:55;14.20;1.00
22682;DHT22;11508;50.856;4.380;2022-09-23T02:56:20;14.20;1.00
22682;DHT22;11508;50.856;4.380;2022-09-23T02:58:52;14.10;1.00
22682;DHT22;11508;50.856;4.380;2022-09-23T03:01:47;14.20;1.00
22682;DHT22;11508;50.856;4.380;2022-09-23T03:06:51;14.40;1.00
22682;DHT22;11508;50.856;4.380;2022-09-23T03:14:55;14.00;1.00
22682;DHT22;11508;50.856;4.380;2022-09-23T03:17:42;14.20;1.00
22682;DHT22;11508;50.856;4.380;2022-09-23T03:20:32;14.20;1.00
22682;DHT22;11508;50.856;4.380;2022-09-23T03:23:04;14.20;1.00
22682;DHT22;11508;50.856;4.380;2022-09-23T03:25:35;14.30;1.00
22682;DHT22;11508;50.856;4.380;2022-09-23T03:28:02;14.20;1.00
22682;DHT22;11508;50.856;4.380;2022-09-23T03:30:30;14.10;1.00
22682;DHT22;11508;50.856;4.380;2022-09-23T03:33:02;13.90;1.00
22682;DHT22;11508;50.856;4.380;2022-09-23T03:35:30;13.90;1.00
22682;DHT22;11508;50.856;4.380;2022-09-23T03:38:07;14.10;1.00
22682;DHT22;11508;50.856;4.380;2022-09-23T03:40:39;14.10;1.00
22682;DHT22;11508;50.856;4.380;2022-09-23T03:43:09;14.00;1.00
22682;DHT22;11508;50.856;4.380;2022-09-23T03:45:36;14.00;1.00
22682;DHT22;11508;50.856;4.380;2022-09-23T03:48:02;13.90;1.00
22682;DHT22;11508;50.856;4.380;2022-09-23T03:50:27;13.90;1.00
22682;DHT22;11508;50.856;4.380;2022-09-23T03:52:53;13.80;1.00
22682;DHT22;11508;50.856;4.380;2022-09-23T03:55:20;13.90;1.00
22682;DHT22;11508;50.856;4.380;2022-09-23T03:57:46;13.80;1.00
22682;DHT22;11508;50.856;4.380;2022-09-23T04:00:13;13.70;1.00
22682;DHT22;11508;50.856;4.380;2022-09-23T04:02:39;13.60;1.00
22682;DHT22;11508;50.856;4.380;2022-09-23T04:05:06;13.60;1.00
22682;DHT22;11508;50.856;4.380;2022-09-23T04:07:32;13.60;1.00
22682;DHT22;11508;50.856;4.380;2022-09-23T04:09:58;13.60;1.00
22682;DHT22;11508;50.856;4.380;2022-09-23T04:12:24;13.60;1.00
22682;DHT22;11508;50.856;4.380;2022-09-23T04:14:49;13.70;1.00
22682;DHT22;11508;50.856;4.380;2022-09-23T04:17:15;13.70;1.00
22682;DHT22;11508;50.856;4.380;2022-09-23T04:19:41;13.60;1.00
22682;DHT22;11508;50.856;4.380;2022-09-23T04:22:07;13.60;1.00
22682;DHT22;11508;50.856;4.380;2022-09-23T04:24:33;13.70;1.00
22682;DHT22;11508;50.856;4.380;2022-09-23T04:26:59;13.70;1.00
22682;DHT22;11508;50.856;4.380;2022-09-23T04:29:25;13.70;1.00
22682;DHT22;11508;50.856;4.380;2022-09-23T04:31:51;13.80;1.00
22682;DHT22;11508;50.856;4.380;2022-09-23T04:34:17;13.90;1.00
22682;DHT22;11508;50.856;4.380;2022-09-23T04:36:44;13.90;1.00
22682;DHT22;11508;50.856;4.380;2022-09-23T04:39:11;13.80;1.00
22682;DHT22;11508;50.856;4.380;2022-09-23T04:41:37;13.90;1.00
22682;DHT22;11508;50.856;4.380;2022-09-23T04:44:03;13.90;1.00
22682;DHT22;11508;50.856;4.380;2022-09-23T04:46:29;13.80;1.00
22682;DHT22;11508;50.856;4.380;2022-09-23T04:48:55;13.80;1.00
22682;DHT22;11508;50.856;4.380;2022-09-23T04:51:22;13.60;1.00
22682;DHT22;11508;50.856;4.380;2022-09-23T04:53:49;13.60;1.00
22682;DHT22;11508;50.856;4.380;2022-09-23T04:56:27;13.60;1.00
22682;DHT22;11508;50.856;4.380;2022-09-23T04:58:53;13.50;1.00
22682;DHT22;11508;50.856;4.380;2022-09-23T05:01:22;13.50;1.00
22682;DHT22;11508;50.856;4.380;2022-09-23T05:03:53;13.50;1.00
22682;DHT22;11508;50.856;4.380;2022-09-23T05:06:20;13.50;1.00
22682;DHT22;11508;50.856;4.380;2022-09-23T05:08:50;13.60;1.00
22682;DHT22;11508;50.856;4.380;2022-09-23T05:11:17;13.60;1.00
22682;DHT22;11508;50.856;4.380;2022-09-23T05:13:44;13.60;1.00
22682;DHT22;11508;50.856;4.380;2022-09-23T05:16:10;13.70;1.00
22682;DHT22;11508;50.856;4.380;2022-09-23T05:18:38;13.70;1.00
22682;DHT22;11508;50.856;4.380;2022-09-23T05:21:20;13.70;1.00
22682;DHT22;11508;50.856;4.380;2022-09-23T05:23:48;13.80;1.00
22682;DHT22;11508;50.856;4.380;2022-09-23T05:26:14;13.80;1.00
22682;DHT22;11508;50.856;4.380;2022-09-23T05:28:40;13.80;1.00
22682;DHT22;11508;50.856;4.380;2022-09-23T05:31:11;13.80;1.00
22682;DHT22;11508;50.856;4.380;2022-09-23T05:33:43;13.70;1.00
22682;DHT22;11508;50.856;4.380;2022-09-23T05:36:11;13.60;1.00
22682;DHT22;11508;50.856;4.380;2022-09-23T05:38:37;13.60;1.00
22682;DHT22;11508;50.856;4.380;2022-09-23T05:41:06;13.60;1.00
22682;DHT22;11508;50.856;4.380;2022-09-23T05:43:32;13.70;1.00
22682;DHT22;11508;50.856;4.380;2022-09-23T05:46:10;13.70;1.00
22682;DHT22;11508;50.856;4.380;2022-09-23T05:48:37;13.60;1.00
22682;DHT22;11508;50.856;4.380;2022-09-23T05:51:04;13.60;1.00
22682;DHT22;11508;50.856;4.380;2022-09-23T05:53:31;13.60;1.00
22682;DHT22;11508;50.856;4.380;2022-09-23T05:55:57;13.60;1.00
22682;DHT22;11508;50.856;4.380;2022-09-23T05:58:23;13.60;1.00
22682;DHT22;11508;50.856;4.380;2022-09-23T06:00:49;13.60;1.00
22682;DHT22;11508;50.856;4.380;2022-09-23T06:03:17;13.60;1.00
22682;DHT22;11508;50.856;4.380;2022-09-23T06:05:44;13.70;1.00
22682;DHT22;11508;50.856;4.380;2022-09-23T06:08:10;13.80;1.00
22682;DHT22;11508;50.856;4.380;2022-09-23T06:10:41;13.80;1.00
22682;DHT22;11508;50.856;4.380;2022-09-23T06:13:07;13.80;1.00
22682;DHT22;11508;50.856;4.380;2022-09-23T06:15:34;13.90;1.00
22682;DHT22;11508;50.856;4.380;2022-09-23T06:18:00;13.90;1.00
22682;DHT22;11508;50.856;4.380;2022-09-23T06:20:26;13.90;1.00
22682;DHT22;11508;50.856;4.380;2022-09-23T06:22:52;13.90;1.00
22682;DHT22;11508;50.856;4.380;2022-09-23T06:25:18;13.90;1.00
22682;DHT22;11508;50.856;4.380;2022-09-23T06:27:54;13.90;1.00
22682;DHT22;11508;50.856;4.380;2022-09-23T06:30:23;13.90;1.00
22682;DHT22;11508;50.856;4.380;2022-09-23T06:32:52;14.10;1.00
22682;DHT22;11508;50.856;4.380;2022-09-23T06:35:18;14.20;1.00
22682;DHT22;11508;50.856;4.380;2022-09-23T06:37:45;14.20;1.00
22682;DHT22;11508;50.856;4.380;2022-09-23T06:40:11;14.30;1.00
22682;DHT22;11508;50.856;4.380;2022-09-23T06:42:42;14.40;1.00
22682;DHT22;11508;50.856;4.380;2022-09-23T06:45:09;14.50;1.00
22682;DHT22;11508;50.856;4.380;2022-09-23T06:47:40;14.60;1.00
22682;DHT22;11508;50.856;4.380;2022-09-23T06:50:07;14.70;1.00
22682;DHT22;11508;50.856;4.380;2022-09-23T06:52:33;14.80;1.00
22682;DHT22;11508;50.856;4.380;2022-09-23T06:54:59;14.90;1.00
22682;DHT22;11508;50.856;4.380;2022-09-23T06:57:31;15.00;1.00
22682;DHT22;11508;50.856;4.380;2022-09-23T06:59:58;14.90;1.00
22682;DHT22;11508;50.856;4.380;2022-09-23T07:02:26;15.10;1.00
22682;DHT22;11508;50.856;4.380;2022-09-23T07:04:52;15.10;1.00
22682;DHT22;11508;50.856;4.380;2022-09-23T07:07:21;15.00;1.00
22682;DHT22;11508;50.856;4.380;2022-09-23T07:09:47;14.90;1.00
22682;DHT22;11508;50.856;4.380;2022-09-23T07:12:13;14.80;1.00
22682;DHT22;11508;50.856;4.380;2022-09-23T07:14:39;14.80;1.00
22682;DHT22;11508;50.856;4.380;2022-09-23T07:17:04;14.90;1.00
22682;DHT22;11508;50.856;4.380;2022-09-23T07:19:30;15.00;1.00
22682;DHT22;11508;50.856;4.380;2022-09-23T07:21:56;15.10;1.00
22682;DHT22;11508;50.856;4.380;2022-09-23T07:24:22;15.20;1.00
22682;DHT22;11508;50.856;4.380;2022-09-23T07:26:48;15.40;1.00
22682;DHT22;11508;50.856;4.380;2022-09-23T07:29:14;15.30;1.00
22682;DHT22;11508;50.856;4.380;2022-09-23T07:31:40;15.20;1.00
22682;DHT22;11508;50.856;4.380;2022-09-23T07:34:09;15.30;1.00
22682;DHT22;11508;50.856;4.380;2022-09-23T07:36:36;15.20;1.00
22682;DHT22;11508;50.856;4.380;2022-09-23T07:39:05;15.20;1.00
22682;DHT22;11508;50.856;4.380;2022-09-23T07:41:32;15.20;1.00
22682;DHT22;11508;50.856;4.380;2022-09-23T07:43:58;15.20;1.00
22682;DHT22;11508;50.856;4.380;2022-09-23T07:46:26;15.20;1.00
22682;DHT22;11508;50.856;4.380;2022-09-23T07:48:53;15.10;1.00
22682;DHT22;11508;50.856;4.380;2022-09-23T07:51:24;15.20;1.00
22682;DHT22;11508;50.856;4.380;2022-09-23T07:53:51;15.30;1.00
22682;DHT22;11508;50.856;4.380;2022-09-23T07:56:19;15.60;1.00
22682;DHT22;11508;50.856;4.380;2022-09-23T07:58:46;15.60;1.00
22682;DHT22;11508;50.856;4.380;2022-09-23T08:01:25;15.60;1.00
22682;DHT22;11508;50.856;4.380;2022-09-23T08:03:52;15.30;1.00
22682;DHT22;11508;50.856;4.380;2022-09-23T08:06:18;15.30;1.00
22682;DHT22;11508;50.856;4.380;2022-09-23T08:08:44;15.30;1.00
22682;DHT22;11508;50.856;4.380;2022-09-23T08:11:12;15.30;1.00
22682;DHT22;11508;50.856;4.380;2022-09-23T08:13:39;15.30;1.00
22682;DHT22;11508;50.856;4.380;2022-09-23T08:16:05;15.50;1.00
22682;DHT22;11508;50.856;4.380;2022-09-23T08:18:31;15.70;1.00
22682;DHT22;11508;50.856;4.380;2022-09-23T08:20:57;15.60;99.90
22682;DHT22;11508;50.856;4.380;2022-09-23T08:23:23;15.80;99.90
22682;DHT22;11508;50.856;4.380;2022-09-23T08:25:56;15.90;99.90
22682;DHT22;11508;50.856;4.380;2022-09-23T08:28:23;16.00;99.90
22682;DHT22;11508;50.856;4.380;2022-09-23T08:30:49;15.90;99.90
22682;DHT22;11508;50.856;4.380;2022-09-23T08:33:15;15.80;99.90
22682;DHT22;11508;50.856;4.380;2022-09-23T08:35:41;15.70;99.90
22682;DHT22;11508;50.856;4.380;2022-09-23T08:38:06;15.70;99.90
22682;DHT22;11508;50.856;4.380;2022-09-23T08:40:35;15.90;99.90
22682;DHT22;11508;50.856;4.380;2022-09-23T08:43:03;16.10;99.90
22682;DHT22;11508;50.856;4.380;2022-09-23T08:45:33;16.20;99.90
22682;DHT22;11508;50.856;4.380;2022-09-23T08:48:11;16.10;99.90
22682;DHT22;11508;50.856;4.380;2022-09-23T08:50:41;16.30;99.90
22682;DHT22;11508;50.856;4.380;2022-09-23T08:53:19;16.40;99.90
22682;DHT22;11508;50.856;4.380;2022-09-23T08:55:50;16.50;99.90
22682;DHT22;11508;50.856;4.380;2022-09-23T09:01:15;16.70;99.90
22682;DHT22;11508;50.856;4.380;2022-09-23T09:03:49;16.80;99.90
22682;DHT22;11508;50.856;4.380;2022-09-23T09:08:59;16.60;99.90
22682;DHT22;11508;50.856;4.380;2022-09-23T09:11:34;16.60;99.90
22682;DHT22;11508;50.856;4.380;2022-09-23T09:19:29;16.90;99.90
22682;DHT22;11508;50.856;4.380;2022-09-23T09:21:57;16.80;99.90
22682;DHT22;11508;50.856;4.380;2022-09-23T09:24:32;17.20;99.90
22682;DHT22;11508;50.856;4.380;2022-09-23T09:27:00;17.40;99.90
22682;DHT22;11508;50.856;4.380;2022-09-23T09:29:37;17.60;99.90
22682;DHT22;11508;50.856;4.380;2022-09-23T09:34:59;17.80;99.90
22682;DHT22;11508;50.856;4.380;2022-09-23T09:37:32;17.70;99.90
22682;DHT22;11508;50.856;4.380;2022-09-23T09:40:00;18.10;99.90
22682;DHT22;11508;50.856;4.380;2022-09-23T09:42:32;18.10;99.90
22682;DHT22;11508;50.856;4.380;2022-09-23T09:45:04;17.90;99.90
22682;DHT22;11508;50.856;4.380;2022-09-23T09:50:10;18.10;99.90
22682;DHT22;11508;50.856;4.380;2022-09-23T09:52:37;17.40;99.90
22682;DHT22;11508;50.856;4.380;2022-09-23T10:03:04;17.10;99.90
22682;DHT22;11508;50.856;4.380;2022-09-23T10:11:35;18.00;99.90
22682;DHT22;11508;50.856;4.380;2022-09-23T10:13:35;18.20;99.90
22682;DHT22;11508;50.856;4.380;2022-09-23T10:16:03;18.10;99.90
22682;DHT22;11508;50.856;4.380;2022-09-23T10:21:13;18.20;99.90
22682;DHT22;11508;50.856;4.380;2022-09-23T10:23:45;18.60;99.90
22682;DHT22;11508;50.856;4.380;2022-09-23T10:26:13;18.70;99.90
22682;DHT22;11508;50.856;4.380;2022-09-23T10:28:48;18.80;99.90
22682;DHT22;11508;50.856;4.380;2022-09-23T10:31:28;18.60;99.90
22682;DHT22;11508;50.856;4.380;2022-09-23T10:34:42;18.60;99.90
22682;DHT22;11508;50.856;4.380;2022-09-23T10:37:02;18.60;99.90
22682;DHT22;11508;50.856;4.380;2022-09-23T10:39:32;19.10;99.90
22682;DHT22;11508;50.856;4.380;2022-09-23T10:42:24;19.40;99.90
22682;DHT22;11508;50.856;4.380;2022-09-23T10:51:30;19.70;99.90
22682;DHT22;11508;50.856;4.380;2022-09-23T11:00:07;20.60;99.90
22682;DHT22;11508;50.856;4.380;2022-09-23T11:05:17;19.80;99.90
22682;DHT22;11508;50.856;4.380;2022-09-23T11:26:43;19.60;99.90
22682;DHT22;11508;50.856;4.380;2022-09-23T11:32:01;19.30;99.90
22682;DHT22;11508;50.856;4.380;2022-09-23T11:37:16;19.10;1.00
22682;DHT22;11508;50.856;4.380;2022-09-23T11:40:33;18.90;1.00
22682;DHT22;11508;50.856;4.380;2022-09-23T11:42:56;19.30;1.00
22682;DHT22;11508;50.856;4.380;2022-09-23T11:45:44;19.80;99.90
22682;DHT22;11508;50.856;4.380;2022-09-23T11:48:19;19.90;99.90
22682;DHT22;11508;50.856;4.380;2022-09-23T11:51:02;20.20;99.90
22682;DHT22;11508;50.856;4.380;2022-09-23T12:05:05;19.70;99.90
22682;DHT22;11508;50.856;4.380;2022-09-23T12:10:57;19.90;99.90
22682;DHT22;11508;50.856;4.380;2022-09-23T12:24:26;20.20;99.90
22682;DHT22;11508;50.856;4.380;2022-09-23T12:27:00;20.50;99.90
22682;DHT22;11508;50.856;4.380;2022-09-23T12:29:30;20.40;99.90
22682;DHT22;11508;50.856;4.380;2022-09-23T12:31:57;19.90;99.90
22682;DHT22;11508;50.856;4.380;2022-09-23T12:34:33;19.60;99.90
22682;DHT22;11508;50.856;4.380;2022-09-23T12:37:02;19.50;99.90
22682;DHT22;11508;50.856;4.380;2022-09-23T12:39:33;19.30;1.00
22682;DHT22;11508;50.856;4.380;2022-09-23T12:42:03;19.00;1.00
22682;DHT22;11508;50.856;4.380;2022-09-23T12:44:40;18.90;1.00
22682;DHT22;11508;50.856;4.380;2022-09-23T12:49:54;19.00;1.00
22682;DHT22;11508;50.856;4.380;2022-09-23T12:52:31;19.10;1.00
22682;DHT22;11508;50.856;4.380;2022-09-23T12:57:49;19.20;1.00
22682;DHT22;11508;50.856;4.380;2022-09-23T13:00:26;19.20;1.00
22682;DHT22;11508;50.856;4.380;2022-09-23T13:02:55;19.40;1.00
22682;DHT22;11508;50.856;4.380;2022-09-23T13:05:47;19.60;1.00
22682;DHT22;11508;50.856;4.380;2022-09-23T13:08:36;20.10;99.90
22682;DHT22;11508;50.856;4.380;2022-09-23T13:11:06;20.30;99.90
22682;DHT22;11508;50.856;4.380;2022-09-23T13:13:42;20.50;99.90
22682;DHT22;11508;50.856;4.380;2022-09-23T13:29:29;19.80;1.00
22682;DHT22;11508;50.856;4.380;2022-09-23T13:32:00;19.50;1.00
22682;DHT22;11508;50.856;4.380;2022-09-23T13:34:30;19.50;1.00
22682;DHT22;11508;50.856;4.380;2022-09-23T13:36:57;19.60;1.00
22682;DHT22;11508;50.856;4.380;2022-09-23T13:39:27;19.80;1.00
22682;DHT22;11508;50.856;4.380;2022-09-23T13:41:57;20.10;1.00
22682;DHT22;11508;50.856;4.380;2022-09-23T13:44:26;20.20;1.00
22682;DHT22;11508;50.856;4.380;2022-09-23T13:46:58;19.70;1.00
22682;DHT22;11508;50.856;4.380;2022-09-23T13:49:27;19.30;1.00
22682;DHT22;11508;50.856;4.380;2022-09-23T13:51:55;19.20;1.00
22682;DHT22;11508;50.856;4.380;2022-09-23T13:54:48;19.10;1.00
22682;DHT22;11508;50.856;4.380;2022-09-23T13:57:25;19.00;1.00
22682;DHT22;11508;50.856;4.380;2022-09-23T13:59:51;19.20;1.00
22682;DHT22;11508;50.856;4.380;2022-09-23T14:02:18;19.20;1.00
22682;DHT22;11508;50.856;4.380;2022-09-23T14:04:44;19.20;1.00
22682;DHT22;11508;50.856;4.380;2022-09-23T14:07:15;19.10;1.00
22682;DHT22;11508;50.856;4.380;2022-09-23T14:09:43;19.20;1.00
22682;DHT22;11508;50.856;4.380;2022-09-23T14:12:09;19.30;1.00
22682;DHT22;11508;50.856;4.380;2022-09-23T14:14:37;19.10;1.00
22682;DHT22;11508;50.856;4.380;2022-09-23T14:17:05;19.00;1.00
22682;DHT22;11508;50.856;4.380;2022-09-23T14:19:32;19.10;1.00
22682;DHT22;11508;50.856;4.380;2022-09-23T14:21:59;19.10;1.00
22682;DHT22;11508;50.856;4.380;2022-09-23T14:24:35;19.20;1.00
22682;DHT22;11508;50.856;4.380;2022-09-23T14:29:42;19.10;1.00
22682;DHT22;11508;50.856;4.380;2022-09-23T14:32:14;19.20;1.00
22682;DHT22;11508;50.856;4.380;2022-09-23T14:40:02;19.20;1.00
22682;DHT22;11508;50.856;4.380;2022-09-23T14:42:30;18.70;1.00
22682;DHT22;11508;50.856;4.380;2022-09-23T14:45:03;18.70;1.00
22682;DHT22;11508;50.856;4.380;2022-09-23T14:47:31;18.70;1.00
22682;DHT22;11508;50.856;4.380;2022-09-23T14:49:57;18.80;1.00
22682;DHT22;11508;50.856;4.380;2022-09-23T14:52:52;18.70;1.00
22682;DHT22;11508;50.856;4.380;2022-09-23T14:55:17;18.70;1.00
22682;DHT22;11508;50.856;4.380;2022-09-23T14:57:44;18.80;1.00
22682;DHT22;11508;50.856;4.380;2022-09-23T15:00:17;18.80;1.00
22682;DHT22;11508;50.856;4.380;2022-09-23T15:02:59;18.80;1.00
22682;DHT22;11508;50.856;4.380;2022-09-23T15:05:38;18.90;1.00
22682;DHT22;11508;50.856;4.380;2022-09-23T15:08:05;19.00;1.00
22682;DHT22;11508;50.856;4.380;2022-09-23T15:10:32;19.00;1.00
22682;DHT22;11508;50.856;4.380;2022-09-23T15:15:51;18.80;1.00
22682;DHT22;11508;50.856;4.380;2022-09-23T15:18:26;18.80;1.00
22682;DHT22;11508;50.856;4.380;2022-09-23T15:21:11;18.70;1.00
22682;DHT22;11508;50.856;4.380;2022-09-23T15:23:50;18.60;1.00
22682;DHT22;11508;50.856;4.380;2022-09-23T15:26:23;18.50;1.00
22682;DHT22;11508;50.856;4.380;2022-09-23T15:28:51;18.50;1.00
22682;DHT22;11508;50.856;4.380;2022-09-23T15:31:20;18.60;1.00
22682;DHT22;11508;50.856;4.380;2022-09-23T15:33:46;18.60;1.00
22682;DHT22;11508;50.856;4.380;2022-09-23T15:36:22;18.60;1.00
22682;DHT22;11508;50.856;4.380;2022-09-23T15:38:50;18.60;1.00
22682;DHT22;11508;50.856;4.380;2022-09-23T15:41:17;18.60;1.00
22682;DHT22;11508;50.856;4.380;2022-09-23T15:43:43;18.50;1.00
22682;DHT22;11508;50.856;4.380;2022-09-23T15:46:23;18.40;1.00
22682;DHT22;11508;50.856;4.380;2022-09-23T15:49:01;18.30;1.00
22682;DHT22;11508;50.856;4.380;2022-09-23T15:51:29;18.30;1.00
22682;DHT22;11508;50.856;4.380;2022-09-23T15:53:55;18.30;1.00
22682;DHT22;11508;50.856;4.380;2022-09-23T15:56:24;18.30;1.00
22682;DHT22;11508;50.856;4.380;2022-09-23T15:58:51;18.40;1.00
22682;DHT22;11508;50.856;4.380;2022-09-23T16:01:26;18.40;1.00
22682;DHT22;11508;50.856;4.380;2022-09-23T16:03:53;18.50;1.00
22682;DHT22;11508;50.856;4.380;2022-09-23T16:06:18;18.40;1.00
22682;DHT22;11508;50.856;4.380;2022-09-23T16:08:45;18.40;1.00
22682;DHT22;11508;50.856;4.380;2022-09-23T16:11:17;18.40;1.00
22682;DHT22;11508;50.856;4.380;2022-09-23T16:13:44;18.30;1.00
22682;DHT22;11508;50.856;4.380;2022-09-23T16:16:10;18.30;1.00
22682;DHT22;11508;50.856;4.380;2022-09-23T16:18:36;18.30;1.00
22682;DHT22;11508;50.856;4.380;2022-09-23T16:21:04;18.30;1.00
22682;DHT22;11508;50.856;4.380;2022-09-23T16:23:33;18.30;1.00
22682;DHT22;11508;50.856;4.380;2022-09-23T16:26:16;18.20;1.00
22682;DHT22;11508;50.856;4.380;2022-09-23T16:28:43;18.00;1.00
22682;DHT22;11508;50.856;4.380;2022-09-23T16:31:09;17.90;4.80
22682;DHT22;11508;50.856;4.380;2022-09-23T16:33:36;17.80;7.80
22682;DHT22;11508;50.856;4.380;2022-09-23T16:36:03;17.70;8.00
22682;DHT22;11508;50.856;4.380;2022-09-23T16:38:29;17.70;5.80
22682;DHT22;11508;50.856;4.380;2022-09-23T16:40:56;17.80;5.80
22682;DHT22;11508;50.856;4.380;2022-09-23T16:43:25;17.90;6.80
22682;DHT22;11508;50.856;4.380;2022-09-23T16:45:56;17.90;6.10
22682;DHT22;11508;50.856;4.380;2022-09-23T16:48:22;18.00;8.70
22682;DHT22;11508;50.856;4.380;2022-09-23T16:50:49;18.10;12.50
22682;DHT22;11508;50.856;4.380;2022-09-23T16:53:18;18.10;13.20
22682;DHT22;11508;50.856;4.380;2022-09-23T16:55:43;17.80;17.40
22682;DHT22;11508;50.856;4.380;2022-09-23T16:58:09;17.70;23.30
22682;DHT22;11508;50.856;4.380;2022-09-23T17:00:35;17.60;27.60
22682;DHT22;11508;50.856;4.380;2022-09-23T17:03:19;17.40;36.20
22682;DHT22;11508;50.856;4.380;2022-09-23T17:06:03;17.30;40.30
22682;DHT22;11508;50.856;4.380;2022-09-23T17:08:29;17.30;45.50
22682;DHT22;11508;50.856;4.380;2022-09-23T17:10:57;17.30;50.10
22682;DHT22;11508;50.856;4.380;2022-09-23T17:13:24;17.40;47.60
22682;DHT22;11508;50.856;4.380;2022-09-23T17:15:51;17.40;49.10
22682;DHT22;11508;50.856;4.380;2022-09-23T17:18:17;17.50;46.10
22682;DHT22;11508;50.856;4.380;2022-09-23T17:20:42;17.30;46.90
22682;DHT22;11508;50.856;4.380;2022-09-23T17:23:08;17.40;50.70
22682;DHT22;11508;50.856;4.380;2022-09-23T17:25:34;17.50;55.40
22682;DHT22;11508;50.856;4.380;2022-09-23T17:28:00;17.30;53.70
22682;DHT22;11508;50.856;4.380;2022-09-23T17:30:26;17.10;62.10
22682;DHT22;11508;50.856;4.380;2022-09-23T17:32:53;17.10;67.30
22682;DHT22;11508;50.856;4.380;2022-09-23T17:35:18;17.10;64.80
22682;DHT22;11508;50.856;4.380;2022-09-23T17:37:45;16.80;67.50
22682;DHT22;11508;50.856;4.380;2022-09-23T17:40:14;16.90;73.60
22682;DHT22;11508;50.856;4.380;2022-09-23T17:42:40;16.80;73.80
22682;DHT22;11508;50.856;4.380;2022-09-23T17:45:09;16.80;79.00
22682;DHT22;11508;50.856;4.380;2022-09-23T17:47:37;16.70;73.60
22682;DHT22;11508;50.856;4.380;2022-09-23T17:50:03;16.60;77.80
22682;DHT22;11508;50.856;4.380;2022-09-23T17:52:31;16.50;81.90
22682;DHT22;11508;50.856;4.380;2022-09-23T17:54:56;16.50;82.30
22682;DHT22;11508;50.856;4.380;2022-09-23T17:57:22;16.50;87.90
22682;DHT22;11508;50.856;4.380;2022-09-23T17:59:48;16.60;86.00
22682;DHT22;11508;50.856;4.380;2022-09-23T18:02:16;16.70;77.70
22682;DHT22;11508;50.856;4.380;2022-09-23T18:04:44;16.60;82.10
22682;DHT22;11508;50.856;4.380;2022-09-23T18:07:10;16.60;87.50
22682;DHT22;11508;50.856;4.380;2022-09-23T18:09:36;16.60;89.30
22682;DHT22;11508;50.856;4.380;2022-09-23T18:12:01;16.50;88.30
22682;DHT22;11508;50.856;4.380;2022-09-23T18:14:27;16.60;89.60
22682;DHT22;11508;50.856;4.380;2022-09-23T18:16:53;16.60;90.00
22682;DHT22;11508;50.856;4.380;2022-09-23T18:19:21;16.60;88.50
22682;DHT22;11508;50.856;4.380;2022-09-23T18:21:57;16.60;83.40
22682;DHT22;11508;50.856;4.380;2022-09-23T18:24:25;16.40;91.70
22682;DHT22;11508;50.856;4.380;2022-09-23T18:26:51;16.30;93.90
22682;DHT22;11508;50.856;4.380;2022-09-23T18:29:20;16.10;94.50
22682;DHT22;11508;50.856;4.380;2022-09-23T18:31:46;16.10;94.60
22682;DHT22;11508;50.856;4.380;2022-09-23T18:34:14;16.00;97.00
22682;DHT22;11508;50.856;4.380;2022-09-23T18:36:43;16.00;97.80
22682;DHT22;11508;50.856;4.380;2022-09-23T18:39:09;16.10;97.40
22682;DHT22;11508;50.856;4.380;2022-09-23T18:41:35;16.00;97.40
22682;DHT22;11508;50.856;4.380;2022-09-23T18:44:02;16.00;98.40
22682;DHT22;11508;50.856;4.380;2022-09-23T18:46:29;16.00;98.40
22682;DHT22;11508;50.856;4.380;2022-09-23T18:48:56;15.90;98.20
22682;DHT22;11508;50.856;4.380;2022-09-23T18:51:53;16.00;99.30